createdAt,value
2022-10-17T00:00:58.076Z,83.00
2022-10-17T00:03:25.731Z,83.10
2022-10-17T00:05:56.642Z,83.20
2022-10-17T00:08:25.919Z,83.30
2022-10-17T00:11:01.793Z,83.90
2022-10-17T00:13:29.851Z,84.50
2022-10-17T00:15:58.071Z,84.30
2022-10-17T00:18:25.357Z,84.50
2022-10-17T00:20:53.062Z,84.80
2022-10-17T00:23:20.772Z,84.90
2022-10-17T00:25:48.204Z,85.00
2022-10-17T00:28:15.899Z,84.90
2022-10-17T00:30:43.432Z,84.80
2022-10-17T00:33:10.840Z,84.50
2022-10-17T00:35:38.295Z,84.60
2022-10-17T00:38:05.635Z,84.60
2022-10-17T00:40:33.024Z,84.60
2022-10-17T00:43:00.457Z,84.70
2022-10-17T00:45:30.650Z,84.50
2022-10-17T00:48:08.562Z,84.40
2022-10-17T00:50:38.536Z,84.20
2022-10-17T00:53:08.152Z,84.00
2022-10-17T00:55:42.304Z,83.90
2022-10-17T00:58:09.771Z,83.80
2022-10-17T01:00:37.668Z,83.80
2022-10-17T01:03:05.370Z,83.80
2022-10-17T01:05:32.994Z,83.70
2022-10-17T01:08:00.914Z,83.50
2022-10-17T01:10:34.891Z,83.40
2022-10-17T01:13:08.442Z,83.50
2022-10-17T01:15:57.210Z,83.50
2022-10-17T01:18:39.198Z,83.40
2022-10-17T01:21:18.466Z,82.90
2022-10-17T01:24:13.307Z,82.60
2022-10-17T01:26:50.214Z,82.80
2022-10-17T01:29:48.294Z,82.70
2022-10-17T01:32:22.436Z,82.80
2022-10-17T01:35:12.513Z,82.70
2022-10-17T01:40:35.977Z,82.40
2022-10-17T01:43:13.558Z,82.20
2022-10-17T01:45:45.738Z,82.10
2022-10-17T01:48:22.820Z,82.00
2022-10-17T01:51:13.270Z,83.00
2022-10-17T01:53:53.395Z,82.40
2022-10-17T01:56:25.210Z,82.30
2022-10-17T01:59:07.004Z,82.20
2022-10-17T02:01:38.223Z,82.40
2022-10-17T02:04:08.862Z,82.40
2022-10-17T02:06:36.801Z,82.40
2022-10-17T02:09:20.305Z,82.30
2022-10-17T02:12:02.825Z,82.40
2022-10-17T02:14:33.799Z,82.30
2022-10-17T02:17:22.835Z,82.50
2022-10-17T02:20:17.136Z,82.70
2022-10-17T02:22:54.080Z,82.70
2022-10-17T02:25:27.031Z,82.70
2022-10-17T02:28:04.792Z,82.70
2022-10-17T02:30:54.952Z,82.90
2022-10-17T02:33:33.980Z,83.30
2022-10-17T02:36:08.909Z,83.30
2022-10-17T02:38:36.699Z,83.20
2022-10-17T02:41:06.094Z,83.10
2022-10-17T02:43:36.748Z,83.00
2022-10-17T02:46:05.807Z,82.90
2022-10-17T02:48:42.407Z,82.80
2022-10-17T02:51:22.450Z,82.80
2022-10-17T02:53:55.458Z,82.80
2022-10-17T02:56:24.474Z,83.00
2022-10-17T02:58:56.959Z,82.70
2022-10-17T03:01:25.052Z,82.80
2022-10-17T03:04:09.127Z,82.70
2022-10-17T03:06:36.591Z,82.70
2022-10-17T03:09:04.281Z,82.60
2022-10-17T03:11:31.564Z,82.60
2022-10-17T03:13:58.804Z,82.40
2022-10-17T03:16:27.832Z,82.40
2022-10-17T03:18:56.442Z,82.40
2022-10-17T03:21:23.653Z,82.50
2022-10-17T03:23:51.670Z,82.30
2022-10-17T03:26:21.120Z,82.10
2022-10-17T03:28:50.711Z,82.00
2022-10-17T03:31:21.760Z,82.00
2022-10-17T03:33:49.635Z,82.20
2022-10-17T03:36:19.211Z,82.30
2022-10-17T03:38:48.065Z,82.50
2022-10-17T03:41:17.089Z,82.70
2022-10-17T03:43:44.495Z,82.80
2022-10-17T03:46:11.841Z,82.80
2022-10-17T03:48:40.405Z,82.70
2022-10-17T03:51:10.292Z,82.40
2022-10-17T03:53:45.368Z,82.20
2022-10-17T03:56:18.735Z,82.30
2022-10-17T03:58:54.087Z,82.20
2022-10-17T04:01:22.730Z,82.20
2022-10-17T04:03:52.139Z,82.20
2022-10-17T04:06:20.323Z,82.30
2022-10-17T04:08:48.283Z,82.30
2022-10-17T04:11:25.155Z,82.20
2022-10-17T04:13:56.198Z,82.50
2022-10-17T04:16:25.183Z,82.20
2022-10-17T04:19:00.106Z,82.10
2022-10-17T04:21:31.572Z,82.20
2022-10-17T04:24:04.070Z,82.20
2022-10-17T04:26:43.125Z,82.30
2022-10-17T04:29:11.202Z,82.20
2022-10-17T04:31:39.775Z,82.40
2022-10-17T04:34:19.259Z,82.50
2022-10-17T04:36:47.146Z,82.30
2022-10-17T04:39:15.117Z,82.50
2022-10-17T04:41:44.714Z,82.60
2022-10-17T04:44:12.770Z,82.60
2022-10-17T04:46:44.762Z,82.60
2022-10-17T04:49:12.521Z,82.50
2022-10-17T04:51:43.684Z,82.40
2022-10-17T04:54:19.214Z,82.40
2022-10-17T04:56:50.495Z,82.50
2022-10-17T04:59:18.112Z,82.70
2022-10-17T05:01:49.485Z,82.90
2022-10-17T05:04:22.355Z,84.10
2022-10-17T05:06:53.231Z,84.10
2022-10-17T05:09:39.163Z,84.30
2022-10-17T05:12:09.505Z,84.60
2022-10-17T05:14:39.556Z,84.80
2022-10-17T05:17:07.118Z,84.70
2022-10-17T05:19:35.259Z,84.50
2022-10-17T05:22:02.672Z,84.40
2022-10-17T05:24:30.129Z,84.10
2022-10-17T05:26:57.568Z,83.70
2022-10-17T05:29:25.288Z,83.40
2022-10-17T05:34:29.596Z,83.40
2022-10-17T05:36:57.811Z,83.50
2022-10-17T05:39:25.571Z,83.70
2022-10-17T05:41:53.517Z,83.80
2022-10-17T05:44:21.760Z,84.00
2022-10-17T05:46:54.526Z,84.10
2022-10-17T05:49:32.959Z,84.10
2022-10-17T05:52:08.462Z,84.10
2022-10-17T05:54:46.823Z,84.00
2022-10-17T05:57:14.444Z,84.00
2022-10-17T05:59:42.062Z,84.00
2022-10-17T06:02:13.912Z,84.00
2022-10-17T06:04:45.541Z,84.10
2022-10-17T06:07:14.345Z,84.30
2022-10-17T06:09:43.511Z,84.40
2022-10-17T06:12:11.772Z,84.40
2022-10-17T06:14:39.486Z,84.30
2022-10-17T06:17:12.116Z,84.30
2022-10-17T06:19:42.834Z,84.20
2022-10-17T06:22:10.755Z,84.30
2022-10-17T06:24:38.452Z,85.50
2022-10-17T06:27:10.891Z,86.80
2022-10-17T06:29:43.935Z,87.50
2022-10-17T06:32:14.269Z,87.40
2022-10-17T06:34:53.557Z,86.40
2022-10-17T06:37:21.176Z,85.10
2022-10-17T06:39:48.799Z,84.30
2022-10-17T06:42:20.507Z,83.80
2022-10-17T06:45:08.449Z,83.30
2022-10-17T06:47:42.869Z,82.50
2022-10-17T06:50:31.944Z,81.90
2022-10-17T06:53:10.499Z,80.80
2022-10-17T06:55:53.869Z,80.20
2022-10-17T06:58:41.584Z,79.40
2022-10-17T07:01:22.550Z,79.80
2022-10-17T07:03:52.875Z,78.30
2022-10-17T07:06:23.199Z,76.50
2022-10-17T07:08:52.380Z,74.40
2022-10-17T07:11:21.681Z,74.30
2022-10-17T07:13:51.909Z,73.20
2022-10-17T07:16:21.125Z,73.10
2022-10-17T07:18:54.301Z,71.10
2022-10-17T07:21:22.702Z,69.40
2022-10-17T07:23:50.660Z,66.70
2022-10-17T07:26:19.647Z,66.00
2022-10-17T07:28:52.865Z,63.60
2022-10-17T07:31:40.871Z,60.50
2022-10-17T07:34:08.479Z,58.90
2022-10-17T07:36:36.732Z,58.20
2022-10-17T07:39:06.531Z,57.50
2022-10-17T07:41:39.538Z,57.20
2022-10-17T07:44:07.923Z,56.50
2022-10-17T07:46:41.296Z,56.40
2022-10-17T07:49:09.160Z,56.80
2022-10-17T07:51:38.982Z,56.90
2022-10-17T07:54:06.933Z,57.10
2022-10-17T07:56:35.084Z,57.10
2022-10-17T07:59:05.320Z,57.80
2022-10-17T08:01:36.404Z,57.30
2022-10-17T08:04:04.080Z,57.80
2022-10-17T08:06:31.607Z,57.40
2022-10-17T08:08:59.697Z,56.60
2022-10-17T08:11:28.337Z,55.00
2022-10-17T08:13:56.600Z,54.20
2022-10-17T08:16:24.060Z,53.80
2022-10-17T08:18:51.804Z,52.50
2022-10-17T08:21:19.857Z,50.50
2022-10-17T08:23:47.821Z,51.10
2022-10-17T08:26:24.759Z,51.50
2022-10-17T08:28:59.629Z,49.50
2022-10-17T08:31:29.844Z,48.40
2022-10-17T08:33:57.923Z,48.40
2022-10-17T08:36:25.682Z,48.30
2022-10-17T08:38:53.439Z,48.10
2022-10-17T08:41:58.701Z,47.90
2022-10-17T08:44:50.242Z,48.90
2022-10-17T08:47:37.724Z,49.20
2022-10-17T08:50:18.402Z,50.30
2022-10-17T08:52:54.768Z,51.00
2022-10-17T08:55:44.549Z,51.40
2022-10-17T08:58:35.352Z,53.70
2022-10-17T09:01:26.166Z,53.40
2022-10-17T09:04:13.067Z,53.10
2022-10-17T09:07:09.604Z,54.50
2022-10-17T09:10:03.300Z,55.30
2022-10-17T09:13:04.006Z,55.70
2022-10-17T09:15:56.462Z,57.10
2022-10-17T09:18:35.391Z,56.70
2022-10-17T09:21:24.496Z,57.30
2022-10-17T09:24:08.920Z,57.90
2022-10-17T09:26:40.465Z,58.20
2022-10-17T09:29:28.608Z,58.70
2022-10-17T09:32:24.014Z,58.70
2022-10-17T09:34:54.980Z,59.60
2022-10-17T09:37:29.683Z,59.70
2022-10-17T09:39:57.666Z,60.10
2022-10-17T09:42:27.738Z,59.90
2022-10-17T09:45:19.403Z,60.30
2022-10-17T09:48:09.161Z,60.40
2022-10-17T09:50:37.962Z,60.10
2022-10-17T09:53:11.093Z,59.80
2022-10-17T09:55:48.842Z,60.50
2022-10-17T09:58:16.637Z,60.00
2022-10-17T10:00:47.116Z,59.90
2022-10-17T10:03:23.455Z,59.80
2022-10-17T10:06:20.293Z,59.80
2022-10-17T10:08:53.467Z,60.30
2022-10-17T10:11:44.340Z,60.70
2022-10-17T10:14:22.964Z,61.40
2022-10-17T10:16:53.656Z,61.60
2022-10-17T10:19:33.746Z,60.70
2022-10-17T10:22:23.744Z,60.80
2022-10-17T10:25:10.450Z,61.40
2022-10-17T10:27:40.876Z,61.30
2022-10-17T10:30:18.802Z,60.80
2022-10-17T10:32:49.201Z,60.00
2022-10-17T10:35:23.006Z,60.70
2022-10-17T10:37:54.058Z,60.30
2022-10-17T10:40:37.221Z,60.10
2022-10-17T10:43:06.429Z,60.30
2022-10-17T10:45:47.367Z,60.70
2022-10-17T10:48:32.424Z,60.10
2022-10-17T10:51:11.446Z,59.50
2022-10-17T10:54:23.359Z,60.90
2022-10-17T10:56:54.698Z,60.70
2022-10-17T10:59:53.314Z,60.00
2022-10-17T11:02:46.233Z,60.30
2022-10-17T11:05:16.794Z,59.60
2022-10-17T11:07:56.052Z,59.70
2022-10-17T11:10:35.671Z,59.60
2022-10-17T11:13:13.626Z,60.40
2022-10-17T11:15:48.296Z,59.70
2022-10-17T11:18:27.191Z,59.20
2022-10-17T11:21:30.174Z,59.40
2022-10-17T11:24:09.272Z,59.00
2022-10-17T11:26:43.660Z,59.60
2022-10-17T11:29:13.677Z,58.60
2022-10-17T11:31:48.944Z,58.90
2022-10-17T11:34:27.836Z,58.70
2022-10-17T11:37:01.479Z,58.40
2022-10-17T11:39:51.082Z,59.00
2022-10-17T11:42:29.079Z,59.30
2022-10-17T11:45:04.746Z,59.00
2022-10-17T11:47:45.813Z,58.90
2022-10-17T11:53:22.966Z,59.00
2022-10-17T11:55:52.463Z,59.20
2022-10-17T11:58:20.115Z,59.00
2022-10-17T12:01:26.112Z,58.90
2022-10-17T12:04:12.924Z,59.10
2022-10-17T12:07:01.028Z,59.50
2022-10-17T12:09:41.002Z,59.50
2022-10-17T12:12:08.669Z,59.10
2022-10-17T12:14:35.956Z,59.30
2022-10-17T12:17:05.241Z,59.20
2022-10-17T12:19:37.499Z,59.20
2022-10-17T12:22:28.831Z,58.90
2022-10-17T12:25:04.308Z,59.60
2022-10-17T12:27:33.593Z,59.40
2022-10-17T12:30:07.067Z,59.70
2022-10-17T12:33:03.876Z,59.50
2022-10-17T12:35:25.088Z,59.40
2022-10-17T12:37:57.378Z,59.60
2022-10-17T12:40:35.930Z,59.20
2022-10-17T12:43:15.325Z,59.60
2022-10-17T12:46:13.747Z,59.80
2022-10-17T12:48:41.114Z,59.20
2022-10-17T12:51:37.399Z,59.10
2022-10-17T12:54:12.942Z,59.10
2022-10-17T12:56:46.664Z,58.70
2022-10-17T12:59:25.863Z,59.20
2022-10-17T13:01:59.802Z,58.60
2022-10-17T13:04:29.748Z,58.80
2022-10-17T13:06:58.940Z,59.10
2022-10-17T13:09:33.506Z,59.10
2022-10-17T13:12:04.599Z,59.30
2022-10-17T13:14:33.829Z,58.90
2022-10-17T13:17:04.046Z,57.60
2022-10-17T13:19:43.776Z,55.70
2022-10-17T13:22:23.303Z,56.40
2022-10-17T13:24:52.171Z,55.70
2022-10-17T13:27:25.279Z,56.00
2022-10-17T13:29:53.102Z,56.80
2022-10-17T13:32:20.838Z,57.30
2022-10-17T13:35:12.671Z,57.40
2022-10-17T13:37:41.779Z,56.90
2022-10-17T13:40:40.892Z,55.90
2022-10-17T13:43:18.171Z,55.30
2022-10-17T13:45:52.497Z,56.10
2022-10-17T13:48:25.227Z,57.00
2022-10-17T13:50:59.106Z,56.60
2022-10-17T13:53:39.755Z,56.50
2022-10-17T13:56:28.923Z,56.30
2022-10-17T13:59:01.367Z,56.10
2022-10-17T14:01:30.023Z,55.70
2022-10-17T14:04:20.231Z,56.00
2022-10-17T14:06:51.299Z,55.80
2022-10-17T14:09:25.738Z,56.00
2022-10-17T14:12:06.339Z,55.40
2022-10-17T14:14:51.666Z,55.10
2022-10-17T14:17:25.589Z,55.10
2022-10-17T14:20:30.860Z,55.30
2022-10-17T14:23:17.473Z,54.40
2022-10-17T14:25:41.107Z,55.50
2022-10-17T14:28:11.815Z,55.30
2022-10-17T14:31:02.967Z,55.50
2022-10-17T14:33:31.825Z,55.50
2022-10-17T14:36:01.456Z,55.60
2022-10-17T14:38:30.361Z,55.40
2022-10-17T14:41:23.569Z,55.70
2022-10-17T14:44:02.309Z,55.80
2022-10-17T14:46:32.255Z,56.00
2022-10-17T14:49:15.331Z,56.10
2022-10-17T14:52:24.076Z,56.20
2022-10-17T14:54:51.814Z,56.50
2022-10-17T14:57:34.547Z,56.30
2022-10-17T15:00:02.171Z,56.50
2022-10-17T15:02:30.775Z,56.70
2022-10-17T15:04:58.527Z,57.00
2022-10-17T15:07:25.885Z,57.20
2022-10-17T15:09:54.087Z,57.40
2022-10-17T15:12:24.996Z,57.50
2022-10-17T15:14:53.238Z,57.50
2022-10-17T15:17:27.075Z,57.70
2022-10-17T15:19:54.603Z,58.20
2022-10-17T15:22:22.928Z,58.40
2022-10-17T15:24:50.672Z,58.20
2022-10-17T15:27:21.270Z,58.30
2022-10-17T15:29:53.034Z,58.60
2022-10-17T15:32:20.484Z,58.80
2022-10-17T15:34:48.149Z,58.80
2022-10-17T15:37:35.827Z,58.80
2022-10-17T15:40:03.775Z,59.60
2022-10-17T15:42:31.342Z,59.20
2022-10-17T15:44:58.954Z,59.50
2022-10-17T15:47:33.824Z,59.80
2022-10-17T15:50:02.224Z,59.80
2022-10-17T15:52:29.783Z,59.70
2022-10-17T15:54:59.550Z,59.80
2022-10-17T15:57:33.777Z,59.80
2022-10-17T16:00:01.637Z,59.90
2022-10-17T16:02:29.195Z,60.20
2022-10-17T16:04:56.499Z,60.30
2022-10-17T16:07:23.976Z,60.30
2022-10-17T16:09:52.008Z,61.00
2022-10-17T16:12:27.602Z,60.70
2022-10-17T16:14:55.427Z,61.10
2022-10-17T16:17:22.892Z,61.20
2022-10-17T16:19:50.455Z,61.50
2022-10-17T16:22:24.523Z,61.50
2022-10-17T16:24:58.254Z,61.80
2022-10-17T16:27:26.638Z,61.80
2022-10-17T16:29:54.023Z,62.00
2022-10-17T16:32:21.693Z,62.30
2022-10-17T16:34:48.888Z,62.80
2022-10-17T16:37:16.344Z,63.00
2022-10-17T16:39:48.826Z,63.20
2022-10-17T16:42:16.188Z,63.50
2022-10-17T16:44:43.760Z,63.90
2022-10-17T16:47:11.363Z,64.20
2022-10-17T16:49:41.610Z,64.50
2022-10-17T16:52:12.134Z,64.80
2022-10-17T16:54:39.482Z,65.00
2022-10-17T16:57:06.980Z,65.00
2022-10-17T16:59:34.371Z,65.50
2022-10-17T17:02:01.821Z,65.60
2022-10-17T17:04:29.362Z,65.50
2022-10-17T17:06:56.800Z,65.70
2022-10-17T17:09:24.295Z,65.80
2022-10-17T17:11:51.831Z,66.20
2022-10-17T17:14:19.224Z,66.30
2022-10-17T17:16:46.739Z,66.60
2022-10-17T17:19:16.934Z,66.70
2022-10-17T17:21:49.985Z,67.30
2022-10-17T17:24:20.733Z,67.40
2022-10-17T17:26:53.333Z,67.60
2022-10-17T17:29:22.180Z,68.00
2022-10-17T17:31:50.475Z,68.30
2022-10-17T17:34:18.464Z,68.00
2022-10-17T17:36:46.124Z,68.60
2022-10-17T17:39:14.788Z,68.40
2022-10-17T17:41:42.973Z,68.70
2022-10-17T17:44:15.592Z,68.70
2022-10-17T17:46:44.895Z,68.90
2022-10-17T17:49:12.735Z,68.90
2022-10-17T17:51:41.574Z,68.90
2022-10-17T17:54:11.442Z,68.90
2022-10-17T17:56:39.567Z,69.10
2022-10-17T17:59:07.272Z,69.10
2022-10-17T18:01:39.091Z,69.30
2022-10-17T18:04:08.679Z,69.30
2022-10-17T18:06:37.781Z,69.50
2022-10-17T18:09:06.885Z,69.90
2022-10-17T18:11:35.252Z,70.00
2022-10-17T18:14:06.571Z,70.00
2022-10-17T18:16:36.386Z,70.30
2022-10-17T18:19:07.114Z,70.50
2022-10-17T18:21:36.292Z,70.50
2022-10-17T18:24:04.893Z,70.60
2022-10-17T18:26:33.315Z,70.60
2022-10-17T18:29:01.143Z,71.50
2022-10-17T18:31:32.024Z,70.60
2022-10-17T18:34:03.059Z,70.70
2022-10-17T18:36:33.306Z,70.70
2022-10-17T18:39:01.769Z,71.00
2022-10-17T18:41:29.902Z,71.00
2022-10-17T18:43:57.880Z,71.20
2022-10-17T18:46:31.248Z,71.10
2022-10-17T18:48:58.952Z,71.10
2022-10-17T18:51:27.321Z,71.60
2022-10-17T18:53:58.414Z,71.40
2022-10-17T18:56:26.809Z,72.00
2022-10-17T18:58:54.640Z,71.90
2022-10-17T19:01:24.540Z,72.20
2022-10-17T19:03:53.803Z,72.00
2022-10-17T19:06:23.616Z,71.70
2022-10-17T19:08:50.865Z,72.00
2022-10-17T19:11:26.833Z,72.00
2022-10-17T19:13:57.803Z,72.20
2022-10-17T19:16:28.468Z,72.40
2022-10-17T19:18:59.653Z,72.30
2022-10-17T19:21:27.581Z,72.40
2022-10-17T19:23:57.556Z,72.20
2022-10-17T19:26:27.367Z,72.20
2022-10-17T19:28:56.002Z,72.40
2022-10-17T19:31:27.097Z,72.50
2022-10-17T19:33:56.103Z,72.80
2022-10-17T19:36:30.403Z,72.90
2022-10-17T19:39:03.293Z,73.00
2022-10-17T19:41:31.619Z,72.90
2022-10-17T19:44:00.552Z,73.00
2022-10-17T19:46:29.453Z,73.20
2022-10-17T19:48:57.391Z,73.60
2022-10-17T19:51:26.295Z,73.60
2022-10-17T19:53:56.628Z,73.60
2022-10-17T19:56:25.413Z,73.40
2022-10-17T19:58:54.407Z,73.10
2022-10-17T20:01:28.125Z,72.90
2022-10-17T20:03:55.804Z,73.10
2022-10-17T20:06:24.050Z,72.90
2022-10-17T20:08:51.732Z,72.90
2022-10-17T20:11:22.842Z,73.00
2022-10-17T20:13:51.429Z,73.40
2022-10-17T20:16:25.584Z,73.40
2022-10-17T20:18:55.599Z,73.40
2022-10-17T20:21:27.274Z,73.40
2022-10-17T20:23:55.237Z,73.30
2022-10-17T20:26:37.105Z,73.30
2022-10-17T20:29:11.385Z,73.60
2022-10-17T20:31:40.612Z,73.90
2022-10-17T20:34:09.650Z,74.00
2022-10-17T20:36:37.554Z,74.40
2022-10-17T20:39:07.134Z,74.40
2022-10-17T20:41:35.040Z,74.50
2022-10-17T20:44:02.859Z,74.60
2022-10-17T20:46:36.803Z,74.50
2022-10-17T20:49:06.938Z,74.50
2022-10-17T20:51:35.362Z,75.00
2022-10-17T20:54:03.909Z,75.20
2022-10-17T20:56:32.786Z,75.10
2022-10-17T20:59:02.227Z,74.90
2022-10-17T21:01:31.645Z,75.00
2022-10-17T21:04:06.129Z,75.10
2022-10-17T21:06:38.205Z,75.00
2022-10-17T21:09:06.347Z,75.10
2022-10-17T21:11:33.582Z,75.50
2022-10-17T21:14:03.912Z,75.80
2022-10-17T21:16:35.614Z,75.70
2022-10-17T21:19:03.863Z,75.70
2022-10-17T21:21:33.851Z,75.50
2022-10-17T21:24:04.791Z,75.40
2022-10-17T21:26:34.013Z,75.40
2022-10-17T21:29:05.686Z,75.50
2022-10-17T21:31:35.504Z,75.30
2022-10-17T21:34:23.749Z,75.20
2022-10-17T21:36:51.381Z,75.50
2022-10-17T21:39:18.894Z,75.40
2022-10-17T21:41:46.687Z,75.40
2022-10-17T21:44:16.340Z,75.30
2022-10-17T21:46:44.389Z,75.40
2022-10-17T21:49:14.046Z,75.40
2022-10-17T21:51:41.751Z,75.60
2022-10-17T21:54:09.215Z,75.60
2022-10-17T21:56:37.400Z,75.70
2022-10-17T21:59:05.234Z,75.70
2022-10-17T22:01:38.481Z,75.70
2022-10-17T22:04:10.258Z,75.70
2022-10-17T22:06:40.612Z,75.60
2022-10-17T22:09:24.555Z,75.50
2022-10-17T22:11:56.743Z,75.70
2022-10-17T22:14:26.706Z,75.80
2022-10-17T22:16:54.722Z,76.00
2022-10-17T22:19:25.259Z,76.40
2022-10-17T22:21:53.529Z,76.80
2022-10-17T22:26:54.567Z,76.90
2022-10-17T22:29:21.823Z,76.70
2022-10-17T22:31:49.494Z,76.60
2022-10-17T22:34:17.619Z,76.50
2022-10-17T22:36:47.556Z,76.40
2022-10-17T22:39:14.887Z,76.40
2022-10-17T22:41:42.232Z,76.30
2022-10-17T22:44:09.711Z,76.20
2022-10-17T22:46:37.199Z,76.20
2022-10-17T22:49:04.599Z,76.10
2022-10-17T22:51:32.321Z,76.10
2022-10-17T22:53:59.771Z,76.20
2022-10-17T22:56:27.476Z,76.20
2022-10-17T22:58:54.776Z,76.10
2022-10-17T23:01:24.464Z,76.10
2022-10-17T23:03:53.161Z,76.30
2022-10-17T23:06:20.822Z,76.30
2022-10-17T23:08:48.901Z,76.20
2022-10-17T23:11:16.668Z,76.10
2022-10-17T23:13:44.396Z,76.40
2022-10-17T23:16:11.756Z,76.40
2022-10-17T23:18:39.278Z,76.40
2022-10-17T23:21:07.629Z,76.90
2022-10-17T23:23:35.898Z,77.10
2022-10-17T23:26:09.406Z,77.20
2022-10-17T23:28:37.670Z,77.20
2022-10-17T23:31:18.411Z,77.00
2022-10-17T23:33:47.759Z,77.40
2022-10-17T23:36:17.802Z,77.00
2022-10-17T23:38:46.234Z,77.10
2022-10-17T23:41:14.299Z,77.30
2022-10-17T23:43:42.062Z,77.30
2022-10-17T23:46:09.771Z,77.10
2022-10-17T23:48:38.573Z,77.00
2022-10-17T23:51:07.754Z,77.00
2022-10-17T23:53:39.172Z,77.00
2022-10-17T23:56:07.991Z,77.00
2022-10-17T23:58:37.863Z,76.90
